createdAt,value
2018-05-12T00:02:00.474Z,14.00
2018-05-12T00:04:27.902Z,14.00
2018-05-12T00:06:55.367Z,14.00
2018-05-12T00:09:22.835Z,14.00
2018-05-12T00:11:50.267Z,13.90
2018-05-12T00:14:18.455Z,13.90
2018-05-12T00:16:46.642Z,13.90
2018-05-12T00:19:15.823Z,13.80
2018-05-12T00:21:43.267Z,13.90
2018-05-12T00:24:10.694Z,13.80
2018-05-12T00:26:38.881Z,13.80
2018-05-12T00:29:07.095Z,13.80
2018-05-12T00:31:34.515Z,13.80
2018-05-12T00:34:01.938Z,13.80
2018-05-12T00:36:29.359Z,13.80
2018-05-12T00:38:56.894Z,13.80
2018-05-12T00:41:24.323Z,13.80
2018-05-12T00:43:52.535Z,13.80
2018-05-12T00:46:19.950Z,13.70
2018-05-12T00:48:48.903Z,13.70
2018-05-12T00:51:16.319Z,13.70
2018-05-12T00:53:43.755Z,13.70
2018-05-12T00:56:11.180Z,13.70
2018-05-12T00:58:39.398Z,13.60
2018-05-12T01:01:06.814Z,13.60
2018-05-12T01:03:34.338Z,13.60
2018-05-12T01:06:01.816Z,13.60
2018-05-12T01:08:29.282Z,13.60
2018-05-12T01:10:56.701Z,13.60
2018-05-12T01:13:24.935Z,13.60
2018-05-12T01:15:52.362Z,13.50
2018-05-12T01:18:19.794Z,13.60
2018-05-12T01:20:47.247Z,13.60
2018-05-12T01:23:14.662Z,13.60
2018-05-12T01:25:43.599Z,13.50
2018-05-12T01:28:11.091Z,13.50
2018-05-12T01:30:38.519Z,13.60
2018-05-12T01:33:05.940Z,13.60
2018-05-12T01:35:33.390Z,13.60
2018-05-12T01:38:00.863Z,13.60
2018-05-12T01:40:28.334Z,13.60
2018-05-12T01:42:55.822Z,13.60
2018-05-12T01:45:23.251Z,13.70
2018-05-12T01:47:51.454Z,13.60
2018-05-12T01:50:18.883Z,13.60
2018-05-12T01:52:47.127Z,13.60
2018-05-12T01:55:14.591Z,13.60
2018-05-12T01:57:42.006Z,13.60
2018-05-12T02:00:09.529Z,13.60
2018-05-12T02:02:36.951Z,13.60
2018-05-12T02:05:05.138Z,13.60
2018-05-12T02:07:32.560Z,13.60
2018-05-12T02:10:00.023Z,13.60
2018-05-12T02:12:27.495Z,13.60
2018-05-12T02:14:54.918Z,13.60
2018-05-12T02:17:22.346Z,13.60
2018-05-12T02:19:49.771Z,13.60
2018-05-12T02:22:17.988Z,13.60
2018-05-12T02:24:45.410Z,13.60
2018-05-12T02:27:13.610Z,13.60
2018-05-12T02:29:41.799Z,13.60
2018-05-12T02:32:09.994Z,13.50
2018-05-12T02:34:38.207Z,13.50
2018-05-12T02:37:06.599Z,13.50
2018-05-12T02:39:34.023Z,13.50
2018-05-12T02:42:02.256Z,13.50
2018-05-12T02:44:29.670Z,13.50
2018-05-12T02:46:57.098Z,13.50
2018-05-12T02:49:24.563Z,13.50
2018-05-12T02:51:51.982Z,13.40
2018-05-12T02:54:19.405Z,13.40
2018-05-12T02:56:46.863Z,13.40
2018-05-12T02:59:15.260Z,13.40
2018-05-12T03:01:42.703Z,13.40
2018-05-12T03:04:10.895Z,13.40
2018-05-12T03:06:39.103Z,13.30
2018-05-12T03:09:06.575Z,13.30
2018-05-12T03:11:33.997Z,13.30
2018-05-12T03:14:01.427Z,13.30
2018-05-12T03:16:28.878Z,13.30
2018-05-12T03:18:56.312Z,13.20
2018-05-12T03:21:24.499Z,13.20
2018-05-12T03:23:52.705Z,13.20
2018-05-12T03:26:20.138Z,13.10
2018-05-12T03:28:47.568Z,13.10
2018-05-12T03:31:14.986Z,13.10
2018-05-12T03:33:42.503Z,13.10
2018-05-12T03:36:09.972Z,13.10
2018-05-12T03:38:37.402Z,13.10
2018-05-12T03:41:04.827Z,13.10
2018-05-12T03:43:32.278Z,13.10
2018-05-12T03:45:59.706Z,13.10
2018-05-12T03:48:27.934Z,13.10
2018-05-12T03:50:55.448Z,13.10
2018-05-12T03:53:22.858Z,13.00
2018-05-12T03:55:50.290Z,13.00
2018-05-12T03:58:17.817Z,13.00
2018-05-12T04:00:45.282Z,13.00
2018-05-12T04:03:12.710Z,12.90
2018-05-12T04:05:51.998Z,12.90
2018-05-12T04:08:31.537Z,12.90
2018-05-12T04:11:11.718Z,12.90
2018-05-12T04:13:39.150Z,12.90
2018-05-12T04:16:06.575Z,12.90
2018-05-12T04:18:34.034Z,12.90
2018-05-12T04:21:01.509Z,12.90
2018-05-12T04:23:28.967Z,12.90
2018-05-12T04:25:56.402Z,12.90
2018-05-12T04:28:24.630Z,12.90
2018-05-12T04:30:52.060Z,12.90
2018-05-12T04:33:20.250Z,12.90
2018-05-12T04:35:48.446Z,12.90
2018-05-12T04:38:16.658Z,12.90
2018-05-12T04:40:44.095Z,12.90
2018-05-12T04:43:12.331Z,12.90
2018-05-12T04:45:39.786Z,12.90
2018-05-12T04:48:07.206Z,13.00
2018-05-12T04:50:34.638Z,13.00
2018-05-12T04:53:02.067Z,13.00
2018-05-12T04:55:30.267Z,13.00
2018-05-12T04:57:57.754Z,13.00
2018-05-12T05:00:25.198Z,13.10
2018-05-12T05:02:53.386Z,13.10
2018-05-12T05:05:21.582Z,13.20
2018-05-12T05:07:49.009Z,13.20
2018-05-12T05:10:16.532Z,13.20
2018-05-12T05:12:43.962Z,13.30
2018-05-12T05:15:12.193Z,13.40
2018-05-12T05:17:39.626Z,13.30
2018-05-12T05:20:07.819Z,13.50
2018-05-12T05:22:36.020Z,13.50
2018-05-12T05:25:03.447Z,13.50
2018-05-12T05:27:30.972Z,13.60
2018-05-12T05:29:58.403Z,13.70
2018-05-12T05:32:26.630Z,13.80
2018-05-12T05:34:54.099Z,13.80
2018-05-12T05:37:21.535Z,13.80
2018-05-12T05:39:49.731Z,13.90
2018-05-12T05:42:17.926Z,14.00
2018-05-12T05:44:45.410Z,14.00
2018-05-12T05:47:12.842Z,14.10
2018-05-12T05:49:41.102Z,14.20
2018-05-12T05:52:09.243Z,14.30
2018-05-12T05:54:36.735Z,14.30
2018-05-12T05:57:04.153Z,14.40
2018-05-12T05:59:31.591Z,14.40
2018-05-12T06:01:59.050Z,14.50
2018-05-12T06:04:26.483Z,14.60
2018-05-12T06:06:54.758Z,14.70
2018-05-12T06:09:22.866Z,14.80
2018-05-12T06:11:50.347Z,14.80
2018-05-12T06:14:17.834Z,14.90
2018-05-12T06:16:45.291Z,15.00
2018-05-12T06:19:13.679Z,15.10
2018-05-12T06:21:41.101Z,15.20
2018-05-12T06:24:09.438Z,15.30
2018-05-12T06:26:36.914Z,15.30
2018-05-12T06:29:04.355Z,15.40
2018-05-12T06:31:32.543Z,15.60
2018-05-12T06:34:00.739Z,15.60
2018-05-12T06:36:28.165Z,15.60
2018-05-12T06:38:55.694Z,15.70
2018-05-12T06:41:23.162Z,15.80
2018-05-12T06:43:50.634Z,15.80
2018-05-12T06:46:18.101Z,15.90
2018-05-12T06:48:45.527Z,16.00
2018-05-12T06:51:12.963Z,16.00
2018-05-12T06:53:40.386Z,16.10
2018-05-12T06:56:08.582Z,16.30
2018-05-12T06:58:36.070Z,16.30
2018-05-12T07:01:03.497Z,16.40
2018-05-12T07:03:30.923Z,16.40
2018-05-12T07:05:58.353Z,16.50
2018-05-12T07:08:25.787Z,16.60
2018-05-12T07:10:53.319Z,16.80
2018-05-12T07:13:20.783Z,16.90
2018-05-12T07:15:48.214Z,16.90
2018-05-12T07:18:15.645Z,17.00
2018-05-12T07:20:43.070Z,17.10
2018-05-12T07:23:11.336Z,17.20
2018-05-12T07:25:38.783Z,17.20
2018-05-12T07:28:06.191Z,17.30
2018-05-12T07:30:34.403Z,17.50
2018-05-12T07:33:01.827Z,17.40
2018-05-12T07:35:30.791Z,17.60
2018-05-12T07:37:58.214Z,17.60
2018-05-12T07:40:26.414Z,17.80
2018-05-12T07:42:53.910Z,17.80
2018-05-12T07:45:21.351Z,17.90
2018-05-12T07:47:49.569Z,18.10
2018-05-12T07:50:16.987Z,18.10
2018-05-12T07:52:44.506Z,18.20
2018-05-12T07:55:11.966Z,18.30
2018-05-12T07:57:39.438Z,18.40
2018-05-12T08:00:07.052Z,18.50
2018-05-12T08:02:34.470Z,18.60
2018-05-12T08:05:01.959Z,18.70
2018-05-12T08:07:29.418Z,18.80
2018-05-12T08:09:56.878Z,18.80
2018-05-12T08:12:24.302Z,18.90
2018-05-12T08:14:51.827Z,19.00
2018-05-12T08:17:19.302Z,19.20
2018-05-12T08:19:46.771Z,19.30
2018-05-12T08:22:14.247Z,19.40
2018-05-12T08:24:41.717Z,19.60
2018-05-12T08:27:09.182Z,19.70
2018-05-12T08:29:36.606Z,19.80
2018-05-12T08:32:04.967Z,19.90
2018-05-12T08:34:32.391Z,20.10
2018-05-12T08:37:00.614Z,20.40
2018-05-12T08:39:28.039Z,20.30
2018-05-12T08:41:56.406Z,20.60
2018-05-12T08:44:23.928Z,20.60
2018-05-12T08:49:41.706Z,21.00
2018-05-12T08:52:09.173Z,21.10
2018-05-12T08:54:36.602Z,21.10
2018-05-12T08:57:04.118Z,21.30
2018-05-12T08:59:31.586Z,21.40
2018-05-12T09:01:59.018Z,21.50
2018-05-12T09:04:26.628Z,21.60
2018-05-12T09:06:54.814Z,21.90
2018-05-12T09:09:22.240Z,21.90
2018-05-12T09:11:49.755Z,22.00
2018-05-12T09:14:17.178Z,22.10
2018-05-12T09:16:44.618Z,22.20
2018-05-12T09:19:12.101Z,22.30
2018-05-12T09:21:39.633Z,22.40
2018-05-12T09:24:07.798Z,22.60
2018-05-12T09:26:35.994Z,22.70
2018-05-12T09:29:04.198Z,22.90
2018-05-12T09:31:31.658Z,22.90
2018-05-12T09:33:59.142Z,23.00
2018-05-12T09:36:26.605Z,22.90
2018-05-12T09:38:54.074Z,22.80
2018-05-12T09:41:21.539Z,23.00
2018-05-12T09:43:49.010Z,23.20
2018-05-12T09:46:16.479Z,23.40
2018-05-12T09:48:43.963Z,23.70
2018-05-12T09:51:11.422Z,23.90
2018-05-12T09:53:38.846Z,24.10
2018-05-12T09:56:06.274Z,24.30
2018-05-12T09:58:33.731Z,24.30
2018-05-12T10:01:01.164Z,23.90
2018-05-12T10:03:28.730Z,23.90
2018-05-12T10:05:56.151Z,24.10
2018-05-12T10:08:23.578Z,24.10
2018-05-12T10:10:51.002Z,24.30
2018-05-12T10:13:18.469Z,24.30
2018-05-12T10:15:45.915Z,24.40
2018-05-12T10:18:13.338Z,24.70
2018-05-12T10:20:40.793Z,24.70
2018-05-12T10:23:08.327Z,24.50
2018-05-12T10:25:36.502Z,23.90
2018-05-12T10:28:03.922Z,23.90
2018-05-12T10:30:31.456Z,23.70
2018-05-12T10:32:58.905Z,23.40
2018-05-12T10:35:27.106Z,23.40
2018-05-12T10:37:54.529Z,23.40
2018-05-12T10:40:21.946Z,23.90
2018-05-12T10:42:49.380Z,24.50
2018-05-12T10:45:16.870Z,25.20
2018-05-12T10:47:44.230Z,25.90
2018-05-12T10:50:12.414Z,26.90
2018-05-12T10:52:40.626Z,27.00
2018-05-12T10:55:08.047Z,26.90
2018-05-12T10:57:35.566Z,26.60
2018-05-12T11:00:02.987Z,26.10
2018-05-12T11:02:30.414Z,25.70
2018-05-12T11:04:57.830Z,25.40
2018-05-12T11:07:25.361Z,25.10
2018-05-12T11:09:52.774Z,24.80
2018-05-12T11:12:20.286Z,24.60
2018-05-12T11:14:47.764Z,24.30
2018-05-12T11:17:15.984Z,24.30
2018-05-12T11:19:43.514Z,24.80
2018-05-12T11:22:10.939Z,25.60
2018-05-12T11:24:38.452Z,26.00
2018-05-12T11:27:05.926Z,26.10
2018-05-12T11:29:33.342Z,25.90
2018-05-12T11:32:00.862Z,25.70
2018-05-12T11:34:28.286Z,25.40
2018-05-12T11:36:55.778Z,25.40
2018-05-12T11:39:23.991Z,26.00
2018-05-12T11:41:51.459Z,25.90
2018-05-12T11:44:18.879Z,26.60
2018-05-12T11:46:46.399Z,27.00
2018-05-12T11:49:13.890Z,27.00
2018-05-12T11:51:41.313Z,26.80
2018-05-12T11:54:09.555Z,27.40
2018-05-12T11:56:36.997Z,27.40
2018-05-12T11:59:04.467Z,27.90
2018-05-12T12:01:31.936Z,28.30
2018-05-12T12:03:59.512Z,28.30
2018-05-12T12:06:27.696Z,28.40
2018-05-12T12:08:55.113Z,28.40
2018-05-12T12:11:22.537Z,28.70
2018-05-12T12:13:49.959Z,29.00
2018-05-12T12:16:17.471Z,29.40
2018-05-12T12:18:44.891Z,29.70
2018-05-12T12:21:12.313Z,29.80
2018-05-12T12:23:39.738Z,29.20
2018-05-12T12:26:07.162Z,28.80
2018-05-12T12:28:34.627Z,28.60
2018-05-12T12:31:02.096Z,28.30
2018-05-12T12:33:29.568Z,28.10
2018-05-12T12:35:56.996Z,28.10
2018-05-12T12:38:25.173Z,28.20
2018-05-12T12:40:53.366Z,28.30
2018-05-12T12:43:21.566Z,28.50
2018-05-12T12:45:49.778Z,28.50
2018-05-12T12:48:17.244Z,28.50
2018-05-12T12:50:45.435Z,28.50
2018-05-12T12:53:12.898Z,28.50
2018-05-12T12:55:40.402Z,28.60
2018-05-12T12:58:07.827Z,28.60
2018-05-12T13:00:35.242Z,28.60
2018-05-12T13:03:02.678Z,28.60
2018-05-12T13:05:30.090Z,28.80
2018-05-12T13:07:57.620Z,29.20
2018-05-12T13:10:25.091Z,29.50
2018-05-12T13:12:52.515Z,29.70
2018-05-12T13:15:19.940Z,29.60
2018-05-12T13:17:47.363Z,29.60
2018-05-12T13:20:15.582Z,29.50
2018-05-12T13:22:43.007Z,29.40
2018-05-12T13:25:11.930Z,29.90
2018-05-12T13:27:40.119Z,30.20
2018-05-12T13:30:08.299Z,30.40
2018-05-12T13:32:36.486Z,30.40
2018-05-12T13:35:04.671Z,30.10
2018-05-12T13:37:32.862Z,29.80
2018-05-12T13:40:01.051Z,29.60
2018-05-12T13:42:29.238Z,29.50
2018-05-12T13:44:57.454Z,29.60
2018-05-12T13:47:24.919Z,29.50
2018-05-12T13:49:52.335Z,29.40
2018-05-12T13:52:19.762Z,28.90
2018-05-12T13:54:47.230Z,28.70
2018-05-12T13:57:14.656Z,28.90
2018-05-12T13:59:42.070Z,29.20
2018-05-12T14:02:09.539Z,29.60
2018-05-12T14:04:36.959Z,29.80
2018-05-12T14:07:04.387Z,29.90
2018-05-12T14:09:31.843Z,30.10
2018-05-12T14:11:59.272Z,30.30
2018-05-12T14:14:26.778Z,30.40
2018-05-12T14:16:54.258Z,30.30
2018-05-12T14:19:21.720Z,30.30
2018-05-12T14:21:49.910Z,30.70
2018-05-12T14:24:17.342Z,30.70
2018-05-12T14:26:44.767Z,30.90
2018-05-12T14:29:12.215Z,31.10
2018-05-12T14:31:39.687Z,31.10
2018-05-12T14:34:07.879Z,30.80
2018-05-12T14:36:35.350Z,30.80
2018-05-12T14:39:02.774Z,30.90
2018-05-12T14:41:30.198Z,31.00
2018-05-12T14:43:57.650Z,31.00
2018-05-12T14:46:25.075Z,30.80
2018-05-12T14:48:52.498Z,30.40
2018-05-12T14:51:19.927Z,29.90
2018-05-12T14:53:47.390Z,29.30
2018-05-12T14:56:15.615Z,28.30
2018-05-12T14:58:43.090Z,28.20
2018-05-12T15:01:10.512Z,28.00
2018-05-12T15:03:37.938Z,28.10
2018-05-12T15:06:05.401Z,28.20
2018-05-12T15:08:32.830Z,28.30
2018-05-12T15:11:01.126Z,28.50
2018-05-12T15:13:29.314Z,28.60
2018-05-12T15:15:57.501Z,28.60
2018-05-12T15:18:25.796Z,28.60
2018-05-12T15:20:53.974Z,28.50
2018-05-12T15:23:22.173Z,28.50
2018-05-12T15:25:50.362Z,28.40
2018-05-12T15:28:17.774Z,28.40
2018-05-12T15:30:45.219Z,28.30
2018-05-12T15:33:12.635Z,28.30
2018-05-12T15:35:40.087Z,28.20
2018-05-12T15:38:07.520Z,28.10
2018-05-12T15:40:34.938Z,27.90
2018-05-12T15:43:02.359Z,27.60
2018-05-12T15:45:29.786Z,27.50
2018-05-12T15:47:57.295Z,27.50
2018-05-12T15:50:24.734Z,27.40
2018-05-12T15:52:52.234Z,27.40
2018-05-12T15:55:19.657Z,27.50
2018-05-12T15:57:47.185Z,27.60
2018-05-12T16:00:14.650Z,27.70
2018-05-12T16:02:42.067Z,27.80
2018-05-12T16:05:09.594Z,27.80
2018-05-12T16:07:37.005Z,27.80
2018-05-12T16:10:04.435Z,27.70
2018-05-12T16:12:31.855Z,27.60
2018-05-12T16:14:59.271Z,27.50
2018-05-12T16:17:26.694Z,27.50
2018-05-12T16:19:54.922Z,27.30
2018-05-12T16:22:22.391Z,27.30
2018-05-12T16:24:49.857Z,27.20
2018-05-12T16:27:17.298Z,27.20
2018-05-12T16:29:45.514Z,26.90
2018-05-12T16:32:12.982Z,26.90
2018-05-12T16:34:40.402Z,26.80
2018-05-12T16:37:07.930Z,26.80
2018-05-12T16:39:35.394Z,26.70
2018-05-12T16:42:02.966Z,26.60
2018-05-12T16:44:31.144Z,26.40
2018-05-12T16:46:59.343Z,26.40
2018-05-12T16:49:26.762Z,26.30
2018-05-12T16:51:54.286Z,26.30
2018-05-12T16:54:21.703Z,26.30
2018-05-12T16:56:49.894Z,26.10
2018-05-12T16:59:17.496Z,26.10
2018-05-12T17:01:44.822Z,26.00
2018-05-12T17:04:12.342Z,25.90
2018-05-12T17:06:39.772Z,25.90
2018-05-12T17:09:07.283Z,25.80
2018-05-12T17:11:34.758Z,25.80
2018-05-12T17:14:02.182Z,25.70
2018-05-12T17:16:29.597Z,25.60
2018-05-12T17:18:57.061Z,25.60
2018-05-12T17:21:24.531Z,25.50
2018-05-12T17:23:52.011Z,25.40
2018-05-12T17:26:19.426Z,25.30
2018-05-12T17:28:46.939Z,25.20
2018-05-12T17:31:14.413Z,25.20
2018-05-12T17:33:41.885Z,25.10
2018-05-12T17:36:09.352Z,25.00
2018-05-12T17:38:36.770Z,25.00
2018-05-12T17:41:05.707Z,24.70
2018-05-12T17:43:33.905Z,24.70
2018-05-12T17:46:01.322Z,24.70
2018-05-12T17:48:28.851Z,24.50
2018-05-12T17:50:56.318Z,24.50
2018-05-12T17:53:23.788Z,24.30
2018-05-12T17:55:51.207Z,24.30
2018-05-12T17:58:20.141Z,24.00
2018-05-12T18:00:48.436Z,24.00
2018-05-12T18:03:15.821Z,24.00
2018-05-12T18:05:43.987Z,23.90
2018-05-12T18:08:12.197Z,23.90
2018-05-12T18:10:39.670Z,23.80
2018-05-12T18:13:07.114Z,23.80
2018-05-12T18:15:35.299Z,23.70
2018-05-12T18:18:03.494Z,23.60
2018-05-12T18:20:30.914Z,23.60
2018-05-12T18:22:58.374Z,23.50
2018-05-12T18:25:25.886Z,23.50
2018-05-12T18:27:54.203Z,23.30
2018-05-12T18:30:21.620Z,23.30
2018-05-12T18:32:50.578Z,23.20
2018-05-12T18:35:17.994Z,23.10
2018-05-12T18:37:45.430Z,23.10
2018-05-12T18:40:12.846Z,23.10
2018-05-12T18:42:40.331Z,23.00
2018-05-12T18:45:08.514Z,22.80
2018-05-12T18:47:36.738Z,22.80
2018-05-12T18:50:04.154Z,22.80
2018-05-12T18:52:33.126Z,22.60
2018-05-12T18:55:00.550Z,22.60
2018-05-12T18:57:28.758Z,22.60
2018-05-12T18:59:56.175Z,22.50
2018-05-12T19:02:24.428Z,22.40
2018-05-12T19:04:51.838Z,22.40
2018-05-12T19:07:20.100Z,22.30
2018-05-12T19:09:47.490Z,22.30
2018-05-12T19:12:14.911Z,22.20
2018-05-12T19:14:42.343Z,22.20
2018-05-12T19:17:09.783Z,22.10
2018-05-12T19:19:37.178Z,22.00
2018-05-12T19:22:04.594Z,21.90
2018-05-12T19:24:32.018Z,21.90
2018-05-12T19:26:59.438Z,21.80
2018-05-12T19:29:26.861Z,21.70
2018-05-12T19:31:55.043Z,21.70
2018-05-12T19:34:22.471Z,21.70
2018-05-12T19:36:49.887Z,21.70
2018-05-12T19:39:18.083Z,21.60
2018-05-12T19:41:46.302Z,21.60
2018-05-12T19:44:13.723Z,21.60
2018-05-12T19:46:41.143Z,21.60
2018-05-12T19:49:08.575Z,21.50
2018-05-12T19:51:36.822Z,21.50
2018-05-12T19:54:04.331Z,21.50
2018-05-12T19:56:32.513Z,21.50
2018-05-12T19:59:00.709Z,21.40
2018-05-12T20:01:28.887Z,21.40
2018-05-12T20:03:57.126Z,21.30
2018-05-12T20:06:25.258Z,21.30
2018-05-12T20:08:53.450Z,21.30
2018-05-12T20:11:21.663Z,21.30
2018-05-12T20:13:49.087Z,21.30
2018-05-12T20:16:16.511Z,21.30
2018-05-12T20:18:43.939Z,21.20
2018-05-12T20:21:11.379Z,21.20
2018-05-12T20:23:38.806Z,21.20
2018-05-12T20:26:06.222Z,21.20
2018-05-12T20:28:33.647Z,21.10
2018-05-12T20:31:01.068Z,21.10
2018-05-12T20:33:28.486Z,21.10
2018-05-12T20:35:55.903Z,21.10
2018-05-12T20:38:23.326Z,21.10
2018-05-12T20:40:50.792Z,21.10
2018-05-12T20:43:18.223Z,21.10
2018-05-12T20:45:45.734Z,21.00
2018-05-12T20:48:13.918Z,21.00
2018-05-12T20:50:41.340Z,21.00
2018-05-12T20:53:08.766Z,21.00
2018-05-12T20:55:36.225Z,21.00
2018-05-12T20:58:03.657Z,21.00
2018-05-12T21:00:31.166Z,21.00
2018-05-12T21:02:58.608Z,20.90
2018-05-12T21:05:26.107Z,20.90
2018-05-12T21:07:53.596Z,20.90
2018-05-12T21:10:20.996Z,20.90
2018-05-12T21:12:48.515Z,20.90
2018-05-12T21:15:15.941Z,20.90
2018-05-12T21:17:43.360Z,20.90
2018-05-12T21:20:10.790Z,20.80
2018-05-12T21:22:38.293Z,20.80
2018-05-12T21:25:05.719Z,20.80
2018-05-12T21:27:33.230Z,20.80
2018-05-12T21:30:00.706Z,20.80
2018-05-12T21:32:28.178Z,20.70
2018-05-12T21:34:55.606Z,20.70
2018-05-12T21:37:23.018Z,20.70
2018-05-12T21:39:50.479Z,20.70
2018-05-12T21:42:17.914Z,20.60
2018-05-12T21:44:46.110Z,20.60
2018-05-12T21:47:14.299Z,20.60
2018-05-12T21:49:42.487Z,20.60
2018-05-12T21:52:10.697Z,20.60
2018-05-12T21:54:38.128Z,20.60
2018-05-12T21:57:05.538Z,20.50
2018-05-12T21:59:32.966Z,20.50
2018-05-12T22:02:00.390Z,20.50
2018-05-12T22:04:27.818Z,20.50
2018-05-12T22:06:56.034Z,20.40
2018-05-12T22:09:23.467Z,20.40
2018-05-12T22:11:51.650Z,20.40
2018-05-12T22:14:19.154Z,20.40
2018-05-12T22:16:46.629Z,20.40
2018-05-12T22:19:14.957Z,20.30
2018-05-12T22:21:42.374Z,20.40
2018-05-12T22:24:09.790Z,20.30
2018-05-12T22:26:37.322Z,20.30
2018-05-12T22:29:04.746Z,20.30
2018-05-12T22:31:32.982Z,20.20
2018-05-12T22:34:00.454Z,20.20
2018-05-12T22:36:28.638Z,20.20
2018-05-12T22:38:56.114Z,20.20
2018-05-12T22:41:23.575Z,20.20
2018-05-12T22:43:50.994Z,20.10
2018-05-12T22:46:18.528Z,20.10
2018-05-12T22:48:45.985Z,20.10
2018-05-12T22:51:13.414Z,20.00
2018-05-12T22:53:40.828Z,20.00
2018-05-12T22:56:08.298Z,19.90
2018-05-12T22:58:35.710Z,19.90
2018-05-12T23:01:03.955Z,19.80
2018-05-12T23:03:31.427Z,19.80
2018-05-12T23:05:58.846Z,19.80
2018-05-12T23:08:26.267Z,19.70
2018-05-12T23:10:53.732Z,19.70
2018-05-12T23:13:21.159Z,19.60
2018-05-12T23:15:48.667Z,19.60
2018-05-12T23:18:16.090Z,19.50
2018-05-12T23:20:44.274Z,19.50
2018-05-12T23:23:11.802Z,19.40
2018-05-12T23:25:39.217Z,19.40
2018-05-12T23:28:07.407Z,19.30
2018-05-12T23:30:34.818Z,19.30
2018-05-12T23:33:02.273Z,19.30
2018-05-12T23:35:30.454Z,19.30
2018-05-12T23:37:58.643Z,19.20
2018-05-12T23:40:26.951Z,19.20
2018-05-12T23:42:54.423Z,19.20
2018-05-12T23:45:21.838Z,19.10
2018-05-12T23:47:50.084Z,19.00
2018-05-12T23:50:17.550Z,19.00
2018-05-12T23:52:44.977Z,19.00
2018-05-12T23:55:12.402Z,19.00
2018-05-12T23:57:39.857Z,19.00
